Ruzgar Bey — H8RW — position and weather

sailwx.info

Track history (hours):
 
Tides and Currents Weather Stations Pressure Air Temp Water Temp Dewpoint Dewpoint Depression Visibility Wind Speed Wind Dir Waves Ship Positions

Ruzgar Bey

Last reported at 2018-Feb-24 07:58 UTC. Time now 2018-Feb-24 08:28 UTC.
Position N 45°28' E 036°44'.

Length 108 m; draft 3.4 m.

Type: Cargo ship. MMSI: 373668000.

Date/timePositionNaut miles runAvg speedWind from/ knotsBaromVisibWave heightAir tempDewpointWater temp
2018-Feb-24 07:58N 45°28' E 036°44'0 0.0
2018-Feb-24 07:28N 45°28' E 036°44'0 0.0
2018-Feb-24 06:58N 45°28' E 036°44'0 0.0
2018-Feb-24 06:28N 45°28' E 036°44'0 0.0
2018-Feb-24 05:58N 45°28' E 036°44'0 0.0
2018-Feb-24 05:28N 45°28' E 036°44'0 0.0
2018-Feb-24 04:53N 45°28' E 036°44'0 0.0
2018-Feb-24 04:23N 45°28' E 036°44'0 0.0
2018-Feb-24 03:56N 45°28' E 036°44'0 0.0
2018-Feb-24 03:29N 45°28' E 036°44'0 0.0
2018-Feb-24 02:56N 45°28' E 036°44'0 0.0
2018-Feb-24 02:29N 45°28' E 036°44'0 0.0
2018-Feb-24 01:59N 45°28' E 036°44'0 0.0
2018-Feb-24 01:26N 45°28' E 036°44'0 0.0
2018-Feb-24 00:59N 45°28' E 036°44'0 0.0
2018-Feb-24 00:26N 45°28' E 036°44'0 0.0
2018-Feb-23 23:59N 45°28' E 036°44'0 0.0
2018-Feb-23 23:29N 45°28' E 036°44'0 0.0
2018-Feb-23 22:56N 45°28' E 036°44'1 1.4
2018-Feb-23 22:30N 45°28' E 036°44'3 6.8
2018-Feb-23 22:00N 45°25' E 036°41'3 6.3
2018-Feb-23 21:30N 45°22' E 036°40'3 5.7
2018-Feb-23 21:00N 45°20' E 036°36'3 6.4
2018-Feb-23 20:30N 45°19' E 036°32'3 6.1
2018-Feb-23 20:00N 45°17' E 036°29'3 6.1
2018-Feb-23 19:30N 45°14' E 036°29'2 4.2
2018-Feb-23 18:59N 45°13' E 036°31'0 0.0
2018-Feb-23 17:53N 45°13' E 036°31'0 0.0
2018-Feb-23 17:29N 45°13' E 036°31'0 0.0
2018-Feb-23 16:59N 45°13' E 036°31'0 0.0
2018-Feb-23 16:29N 45°13' E 036°31'0 0.0
2018-Feb-23 15:50N 45°13' E 036°31'0 0.0
2018-Feb-23 15:26N 45°13' E 036°31'0 0.0
2018-Feb-23 14:59N 45°13' E 036°31'0 0.0
2018-Feb-23 14:29N 45°13' E 036°31'0 0.0
2018-Feb-23 13:59N 45°13' E 036°31'0 0.1
2018-Feb-23 13:29N 45°13' E 036°31'0 0.0
2018-Feb-23 12:59N 45°13' E 036°31'0 0.0
2018-Feb-23 12:29N 45°13' E 036°31'0 0.0
2018-Feb-23 11:53N 45°13' E 036°31'0 0.0
2018-Feb-23 11:29N 45°13' E 036°31'0 0.0
2018-Feb-23 10:59N 45°13' E 036°31'0 0.0
2018-Feb-23 10:29N 45°13' E 036°31'0 0.0
2018-Feb-23 09:59N 45°13' E 036°31'0 0.0
2018-Feb-23 09:26N 45°13' E 036°31'0 0.0
2018-Feb-23 08:59N 45°13' E 036°31'0 0.0
2018-Feb-23 08:29N 45°13' E 036°31'0 0.0
2018-Feb-23 07:59N 45°13' E 036°31'0 0.0
2018-Feb-23 07:29N 45°13' E 036°31'0 0.0
2018-Feb-23 06:59N 45°13' E 036°31'0 0.0
2018-Feb-23 06:29N 45°13' E 036°31'0 0.0
2018-Feb-23 05:58N 45°13' E 036°31'1 1.3
2018-Feb-23 05:30N 45°12' E 036°31'6 6.5
2018-Feb-23 04:37N 45°06' E 036°30'1 6.9
2018-Feb-23 04:30N 45°05' E 036°30'  
Track history (hours):
 
Tides and Currents Weather Stations Pressure Air Temp Water Temp Dewpoint Dewpoint Depression Visibility Wind Speed Wind Dir Waves Ship Positions

Ruzgar Bey

Last reported at 2018-Feb-24 07:58 UTC. Time now 2018-Feb-24 08:28 UTC.
Position N 45°28' E 036°44'.

Length 108 m; draft 3.4 m.

Type: Cargo ship. MMSI: 373668000.

Date/timePositionNaut miles runAvg speedWind from/ knotsBaromVisibWave heightAir tempDewpointWater temp
2018-Feb-24 07:58N 45°28' E 036°44'0 0.0
2018-Feb-24 07:28N 45°28' E 036°44'0 0.0
2018-Feb-24 06:58N 45°28' E 036°44'0 0.0
2018-Feb-24 06:28N 45°28' E 036°44'0 0.0
2018-Feb-24 05:58N 45°28' E 036°44'0 0.0
2018-Feb-24 05:28N 45°28' E 036°44'0 0.0
2018-Feb-24 04:53N 45°28' E 036°44'0 0.0
2018-Feb-24 04:23N 45°28' E 036°44'0 0.0
2018-Feb-24 03:56N 45°28' E 036°44'0 0.0
2018-Feb-24 03:29N 45°28' E 036°44'0 0.0
2018-Feb-24 02:56N 45°28' E 036°44'0 0.0
2018-Feb-24 02:29N 45°28' E 036°44'0 0.0
2018-Feb-24 01:59N 45°28' E 036°44'0 0.0
2018-Feb-24 01:26N 45°28' E 036°44'0 0.0
2018-Feb-24 00:59N 45°28' E 036°44'0 0.0
2018-Feb-24 00:26N 45°28' E 036°44'0 0.0
2018-Feb-23 23:59N 45°28' E 036°44'0 0.0
2018-Feb-23 23:29N 45°28' E 036°44'0 0.0
2018-Feb-23 22:56N 45°28' E 036°44'1 1.4
2018-Feb-23 22:30N 45°28' E 036°44'3 6.8
2018-Feb-23 22:00N 45°25' E 036°41'3 6.3
2018-Feb-23 21:30N 45°22' E 036°40'3 5.7
2018-Feb-23 21:00N 45°20' E 036°36'3 6.4
2018-Feb-23 20:30N 45°19' E 036°32'3 6.1
2018-Feb-23 20:00N 45°17' E 036°29'3 6.1
2018-Feb-23 19:30N 45°14' E 036°29'2 4.2
2018-Feb-23 18:59N 45°13' E 036°31'0 0.0
2018-Feb-23 17:53N 45°13' E 036°31'0 0.0
2018-Feb-23 17:29N 45°13' E 036°31'0 0.0
2018-Feb-23 16:59N 45°13' E 036°31'0 0.0
2018-Feb-23 16:29N 45°13' E 036°31'0 0.0
2018-Feb-23 15:50N 45°13' E 036°31'0 0.0
2018-Feb-23 15:26N 45°13' E 036°31'0 0.0
2018-Feb-23 14:59N 45°13' E 036°31'0 0.0
2018-Feb-23 14:29N 45°13' E 036°31'0 0.0
2018-Feb-23 13:59N 45°13' E 036°31'0 0.1
2018-Feb-23 13:29N 45°13' E 036°31'0 0.0
2018-Feb-23 12:59N 45°13' E 036°31'0 0.0
2018-Feb-23 12:29N 45°13' E 036°31'0 0.0
2018-Feb-23 11:53N 45°13' E 036°31'0 0.0
2018-Feb-23 11:29N 45°13' E 036°31'0 0.0
2018-Feb-23 10:59N 45°13' E 036°31'0 0.0
2018-Feb-23 10:29N 45°13' E 036°31'0 0.0
2018-Feb-23 09:59N 45°13' E 036°31'0 0.0
2018-Feb-23 09:26N 45°13' E 036°31'0 0.0
2018-Feb-23 08:59N 45°13' E 036°31'0 0.0
2018-Feb-23 08:29N 45°13' E 036°31'0 0.0
2018-Feb-23 07:59N 45°13' E 036°31'0 0.0
2018-Feb-23 07:29N 45°13' E 036°31'0 0.0
2018-Feb-23 06:59N 45°13' E 036°31'0 0.0
2018-Feb-23 06:29N 45°13' E 036°31'0 0.0
2018-Feb-23 05:58N 45°13' E 036°31'1 1.3
2018-Feb-23 05:30N 45°12' E 036°31'6 6.5
2018-Feb-23 04:37N 45°06' E 036°30'1 6.9
2018-Feb-23 04:30N 45°05' E 036°30'  

Dump ship's entire track history